createdAt,value
2023-02-09T00:04:19.857Z,25.77
2023-02-09T00:09:25.912Z,22.10
2023-02-09T00:14:33.711Z,20.88
2023-02-09T00:19:39.710Z,25.60
2023-02-09T00:24:45.752Z,23.98
2023-02-09T00:29:51.288Z,17.67
2023-02-09T00:34:56.975Z,17.25
2023-02-09T00:40:02.802Z,27.17
2023-02-09T00:45:10.060Z,27.20
2023-02-09T00:50:16.514Z,24.95
2023-02-09T00:55:22.430Z,26.50
2023-02-09T01:00:28.326Z,17.90
2023-02-09T01:05:35.757Z,25.65
2023-02-09T01:10:42.352Z,22.02
2023-02-09T01:15:48.614Z,23.33
2023-02-09T01:26:08.119Z,21.77
2023-02-09T01:31:32.800Z,24.02
2023-02-09T01:36:39.369Z,20.45
2023-02-09T01:46:53.731Z,30.80
2023-02-09T01:52:28.613Z,23.88
2023-02-09T01:57:42.761Z,24.73
2023-02-09T02:02:56.822Z,27.48
2023-02-09T02:08:19.624Z,29.00
2023-02-09T02:13:29.026Z,30.63
2023-02-09T02:18:57.471Z,29.17
2023-02-09T02:24:21.485Z,31.75
2023-02-09T02:29:57.270Z,29.10
2023-02-09T02:35:27.447Z,32.22
2023-02-09T02:40:43.296Z,31.05
2023-02-09T02:46:08.932Z,31.13
2023-02-09T02:51:32.679Z,30.98
2023-02-09T02:56:49.307Z,34.50
2023-02-09T03:02:10.877Z,27.95
2023-02-09T03:07:19.165Z,25.58
2023-02-09T03:12:37.173Z,24.65
2023-02-09T03:17:58.766Z,21.40
2023-02-09T03:23:10.480Z,24.77
2023-02-09T03:28:31.373Z,25.92
2023-02-09T03:33:41.118Z,21.67
2023-02-09T03:38:49.332Z,25.17
2023-02-09T03:44:15.556Z,20.63
2023-02-09T03:49:25.949Z,24.70
2023-02-09T03:54:36.450Z,26.98
2023-02-09T03:59:43.130Z,27.85
2023-02-09T04:04:59.490Z,28.88
2023-02-09T04:10:10.610Z,29.15
2023-02-09T04:15:18.115Z,30.52
2023-02-09T04:20:30.369Z,26.40
2023-02-09T04:25:46.829Z,31.77
2023-02-09T04:31:07.722Z,30.02
2023-02-09T04:36:14.175Z,31.45
2023-02-09T04:41:23.310Z,42.47
2023-02-09T04:46:41.389Z,31.10
2023-02-09T05:03:30.804Z,34.45
2023-02-09T05:09:03.794Z,35.03
2023-02-09T05:14:24.788Z,33.88
2023-02-09T05:20:06.414Z,39.75
2023-02-09T05:25:16.181Z,33.90
2023-02-09T05:30:56.146Z,38.55
2023-02-09T05:36:17.215Z,36.88
2023-02-09T05:41:47.497Z,36.67
2023-02-09T05:47:07.198Z,39.60
2023-02-09T05:52:22.729Z,39.50
2023-02-09T05:57:48.365Z,38.97
2023-02-09T06:08:21.229Z,40.58
2023-02-09T06:13:35.589Z,42.42
2023-02-09T06:18:51.685Z,41.05
2023-02-09T06:24:07.308Z,40.33
2023-02-09T06:29:20.994Z,41.60
2023-02-09T06:34:36.904Z,39.33
2023-02-09T06:39:43.271Z,40.60
2023-02-09T06:45:14.000Z,38.95
2023-02-09T06:50:35.755Z,41.90
2023-02-09T06:55:55.565Z,40.15
2023-02-09T07:01:14.983Z,41.28
2023-02-09T07:06:28.216Z,38.80
2023-02-09T07:11:44.450Z,39.67
2023-02-09T07:17:05.964Z,40.33
2023-02-09T07:22:19.285Z,35.85
2023-02-09T07:27:27.143Z,31.88
2023-02-09T07:32:32.892Z,36.22
2023-02-09T07:37:57.555Z,34.90
2023-02-09T07:43:14.625Z,38.55
2023-02-09T07:48:25.576Z,32.85
2023-02-09T07:53:40.722Z,37.55
2023-02-09T07:58:53.066Z,30.25
2023-02-09T08:04:09.444Z,37.47
2023-02-09T08:09:21.623Z,31.20
2023-02-09T08:14:45.833Z,35.65
2023-02-09T08:20:05.787Z,31.63
2023-02-09T08:25:13.716Z,32.28
2023-02-09T08:30:25.729Z,33.38
2023-02-09T08:35:37.728Z,26.30
2023-02-09T08:40:52.444Z,29.48
2023-02-09T08:46:18.611Z,32.10
2023-02-09T08:51:26.218Z,21.67
2023-02-09T08:56:39.649Z,32.92
2023-02-09T09:01:56.307Z,15.63
2023-02-09T09:07:04.448Z,20.20
2023-02-09T09:12:13.169Z,15.30
2023-02-09T09:17:21.308Z,18.83
2023-02-09T09:22:30.405Z,24.85
2023-02-09T09:27:37.761Z,21.20
2023-02-09T09:32:44.040Z,27.15
2023-02-09T09:43:06.304Z,28.20
2023-02-09T09:48:53.636Z,25.30
2023-02-09T09:54:02.238Z,19.98
2023-02-09T09:59:24.095Z,27.63
2023-02-09T10:04:33.822Z,16.65
2023-02-09T10:09:57.733Z,24.88
2023-02-09T10:15:24.584Z,26.70
2023-02-09T10:20:50.911Z,27.83
2023-02-09T10:26:13.442Z,26.42
2023-02-09T10:31:40.086Z,26.83
2023-02-09T10:36:56.532Z,25.60
2023-02-09T10:42:26.849Z,27.42
2023-02-09T10:47:38.787Z,24.60
2023-02-09T10:53:09.705Z,27.40
2023-02-09T10:58:31.582Z,27.15
2023-02-09T11:04:08.757Z,24.35
2023-02-09T11:09:36.488Z,25.63
2023-02-09T11:14:46.050Z,31.55
2023-02-09T11:20:17.493Z,28.15
2023-02-09T11:26:21.609Z,32.35
2023-02-09T11:31:56.512Z,33.08
2023-02-09T11:37:37.206Z,31.60
2023-02-09T11:43:03.240Z,28.60
2023-02-09T11:48:16.369Z,23.45
2023-02-09T11:53:34.193Z,25.08
2023-02-09T11:59:12.035Z,25.10
2023-02-09T12:04:55.421Z,25.40
2023-02-09T12:10:43.102Z,21.23
2023-02-09T12:15:58.588Z,21.95
2023-02-09T12:21:15.321Z,25.83
2023-02-09T12:27:00.860Z,24.58
2023-02-09T12:32:44.050Z,25.17
2023-02-09T12:38:31.582Z,26.33
2023-02-09T12:43:43.226Z,24.45
2023-02-09T12:49:37.463Z,25.80
2023-02-09T12:55:08.385Z,26.80
2023-02-09T13:00:43.511Z,24.45
2023-02-09T13:06:05.946Z,24.52
2023-02-09T13:11:50.169Z,24.20
2023-02-09T13:17:15.408Z,22.73
2023-02-09T13:23:20.349Z,26.40
2023-02-09T13:28:34.419Z,23.17
2023-02-09T13:33:57.513Z,25.45
2023-02-09T13:39:09.766Z,23.13
2023-02-09T13:44:41.985Z,23.35
2023-02-09T13:50:08.666Z,25.20
2023-02-09T13:55:39.093Z,24.25
2023-02-09T14:01:45.260Z,26.50
2023-02-09T14:07:05.300Z,25.17
2023-02-09T14:12:22.569Z,24.98
2023-02-09T14:17:47.384Z,26.07
2023-02-09T14:23:13.996Z,26.90
2023-02-09T14:28:31.997Z,24.23
2023-02-09T14:34:03.147Z,25.30
2023-02-09T14:39:25.124Z,23.67
2023-02-09T14:45:00.251Z,26.40
2023-02-09T14:50:33.752Z,22.00
2023-02-09T14:56:09.428Z,24.05
2023-02-09T15:01:29.627Z,24.35
2023-02-09T15:06:45.010Z,21.15
2023-02-09T15:12:07.665Z,23.92
2023-02-09T15:17:21.069Z,21.00
2023-02-09T15:23:02.006Z,22.23
2023-02-09T15:28:37.992Z,23.63
2023-02-09T15:33:50.112Z,20.42
2023-02-09T15:39:01.627Z,21.40
2023-02-09T15:44:46.960Z,21.48
2023-02-09T15:49:53.817Z,21.17
2023-02-09T15:55:02.019Z,21.90
2023-02-09T16:00:42.252Z,21.42
2023-02-09T16:06:02.851Z,21.67
2023-02-09T16:11:21.581Z,20.80
2023-02-09T16:16:35.278Z,23.23
2023-02-09T16:21:46.847Z,24.73
2023-02-09T16:26:57.221Z,25.17
2023-02-09T16:32:04.407Z,21.00
2023-02-09T16:37:10.635Z,22.42
2023-02-09T16:42:20.745Z,23.73
2023-02-09T16:47:29.805Z,24.80
2023-02-09T16:52:36.330Z,24.00
2023-02-09T16:57:42.374Z,29.33
2023-02-09T17:02:55.363Z,31.00
2023-02-09T17:08:09.501Z,34.60
2023-02-09T17:13:15.416Z,36.22
2023-02-09T17:18:36.737Z,26.75
2023-02-09T17:23:41.841Z,26.10
2023-02-09T17:28:47.107Z,27.27
2023-02-09T17:33:55.867Z,29.77
2023-02-09T17:39:04.026Z,30.02
2023-02-09T17:44:26.594Z,27.90
2023-02-09T17:49:41.205Z,30.90
2023-02-09T17:54:47.413Z,27.50
2023-02-09T17:59:52.710Z,27.15
2023-02-09T18:04:58.012Z,24.60
2023-02-09T18:10:04.604Z,24.23
2023-02-09T18:15:22.206Z,25.73
2023-02-09T18:20:30.900Z,27.95
2023-02-09T18:25:39.069Z,21.10
2023-02-09T18:30:45.107Z,22.35
2023-02-09T18:35:51.236Z,22.42
2023-02-09T18:40:56.379Z,22.25
2023-02-09T18:46:02.549Z,22.70
2023-02-09T18:51:11.839Z,24.70
2023-02-09T18:56:22.749Z,23.13
2023-02-09T19:01:28.111Z,23.25
2023-02-09T19:06:34.801Z,21.47
2023-02-09T19:11:40.593Z,23.23
2023-02-09T19:16:45.784Z,22.60
2023-02-09T19:21:53.511Z,24.50
2023-02-09T19:26:58.967Z,24.65
2023-02-09T19:32:04.527Z,22.63
2023-02-09T19:37:12.032Z,23.20
2023-02-09T19:42:17.660Z,23.60
2023-02-09T19:47:29.113Z,20.77
2023-02-09T19:52:38.707Z,19.00
2023-02-09T19:57:44.277Z,20.38
2023-02-09T20:02:50.632Z,23.13
2023-02-09T20:07:55.956Z,22.67
2023-02-09T20:13:01.137Z,22.23
2023-02-09T20:18:07.000Z,21.03
2023-02-09T20:23:13.718Z,22.33
2023-02-09T20:28:19.797Z,20.42
2023-02-09T20:33:24.918Z,23.20
2023-02-09T20:38:30.505Z,21.02
2023-02-09T20:43:53.923Z,22.77
2023-02-09T20:48:59.372Z,23.45
2023-02-09T20:54:04.970Z,23.03
2023-02-09T20:59:10.528Z,22.88
2023-02-09T21:04:15.603Z,24.80
2023-02-09T21:09:27.478Z,20.95
2023-02-09T21:14:43.223Z,20.38
2023-02-09T21:19:48.602Z,23.13
2023-02-09T21:24:53.787Z,21.70
2023-02-09T21:29:59.405Z,24.10
2023-02-09T21:35:04.656Z,21.90
2023-02-09T21:40:10.382Z,25.17
2023-02-09T21:45:15.782Z,24.52
2023-02-09T21:50:22.692Z,22.80
2023-02-09T21:55:28.166Z,24.15
2023-02-09T22:00:33.595Z,23.77
2023-02-09T22:05:38.801Z,21.23
2023-02-09T22:10:44.208Z,24.52
2023-02-09T22:15:50.783Z,26.90
2023-02-09T22:20:56.602Z,19.38
2023-02-09T22:26:06.243Z,21.95
2023-02-09T22:31:29.978Z,21.15
2023-02-09T22:36:36.847Z,23.67
2023-02-09T22:41:44.131Z,21.88
2023-02-09T22:46:49.763Z,28.00
2023-02-09T22:51:55.290Z,22.63
2023-02-09T22:57:00.664Z,23.00
2023-02-09T23:02:07.094Z,17.40
2023-02-09T23:07:12.889Z,24.23
2023-02-09T23:12:18.718Z,23.70
2023-02-09T23:17:24.415Z,32.33
2023-02-09T23:22:30.359Z,23.45
2023-02-09T23:32:41.044Z,30.77
2023-02-09T23:37:46.282Z,21.13
2023-02-09T23:42:52.322Z,25.58
2023-02-09T23:47:57.366Z,31.17
2023-02-09T23:53:03.707Z,22.93
2023-02-09T23:58:09.501Z,28.88
